Time;durP1;ratioP1;P1;durP2;ratioP2;P2;SDS_P1;SDS_P2;PMS_P1;PMS_P2;Temp;Humidity;BMP_temperature;BMP_pressure;BME280_temperature;BME280_humidity;BME280_pressure;Samples;Min_cycle;Max_cycle;Signal;HPM_P1;HPM_P2
2022/03/12 07:29:34;;;;;;;17.90;8.60;;;;;;;;;;6201250;23;20120;-93
2022/03/12 07:32:00;;;;;;;27.75;10.77;;;;;;;;;;6222791;23;20000;-92
2022/03/12 07:34:27;;;;;;;30.45;9.52;;;;;;;;;;6196029;23;20055;-92
2022/03/12 07:39:58;;;;;;;21.45;8.32;;;;;;;;;;6222370;23;20015;-94
2022/03/12 07:42:24;;;;;;;33.88;10.48;;;;;;;;;;6196116;23;20288;-93
2022/03/12 07:44:50;;;;;;;28.85;10.70;;;;;;;;;;6196782;23;20008;-94
2022/03/12 07:47:16;;;;;;;13.10;7.40;;;;;;;;;;6222416;23;20004;-92
2022/03/12 07:49:43;;;;;;;15.32;7.45;;;;;;;;;;6222259;23;20028;-91
2022/03/12 07:55:13;;;;;;;16.48;7.43;;;;;;;;;;6221921;23;20101;-92
2022/03/12 07:57:40;;;;;;;16.20;7.07;;;;;;;;;;6195894;23;20008;-92
2022/03/12 08:00:08;;;;;;;15.25;7.85;;;;;;;;;;6195910;23;20001;-93
2022/03/12 08:02:34;;;;;;;12.38;6.53;;;;;;;;;;6222145;23;20426;-93
2022/03/12 08:05:02;;;;;;;16.63;8.35;;;;;;;;;;6195800;23;20391;-94
2022/03/12 08:13:04;;;;;;;39.53;17.67;;;;;;;;;;6180157;23;20283;-92
2022/03/12 08:15:30;;;;;;;19.52;9.07;;;;;;;;;;6195559;23;20503;-90
2022/03/12 08:17:56;;;;;;;24.55;10.35;;;;;;;;;;6221878;23;20005;-92
2022/03/12 08:20:22;;;;;;;18.38;8.48;;;;;;;;;;6222119;23;20000;-92
2022/03/12 08:22:48;;;;;;;12.75;5.63;;;;;;;;;;6221847;23;20020;-92
2022/03/12 08:25:15;;;;;;;11.63;6.13;;;;;;;;;;6221896;23;20371;-90
2022/03/12 08:27:42;;;;;;;18.70;9.02;;;;;;;;;;6221691;23;20028;-89
2022/03/12 08:30:08;;;;;;;14.57;8.27;;;;;;;;;;6222435;23;20024;-89
2022/03/12 08:32:36;;;;;;;15.07;6.25;;;;;;;;;;6221729;23;20342;-89
2022/03/12 08:35:05;;;;;;;14.48;5.80;;;;;;;;;;6195813;23;20062;-91
2022/03/12 08:37:31;;;;;;;11.80;6.57;;;;;;;;;;6196059;23;20091;-91
2022/03/12 08:39:57;;;;;;;14.35;7.53;;;;;;;;;;6222425;23;20001;-91
2022/03/12 08:42:24;;;;;;;13.55;6.38;;;;;;;;;;6195528;23;20012;-92
2022/03/12 08:44:51;;;;;;;11.35;6.78;;;;;;;;;;6222169;23;20004;-91
2022/03/12 08:47:17;;;;;;;13.30;6.88;;;;;;;;;;6222095;23;20074;-92
2022/03/12 08:49:44;;;;;;;12.15;6.80;;;;;;;;;;6222111;23;20012;-92
2022/03/12 08:52:10;;;;;;;38.60;11.93;;;;;;;;;;6221953;23;20363;-92
2022/03/12 08:54:36;;;;;;;41.42;27.15;;;;;;;;;;6222051;23;20004;-91
2022/03/12 08:57:02;;;;;;;24.00;14.70;;;;;;;;;;6221787;23;20031;-92
2022/03/12 08:59:28;;;;;;;18.20;9.90;;;;;;;;;;6221590;23;20368;-92
2022/03/12 09:01:55;;;;;;;19.58;10.40;;;;;;;;;;6221423;23;19996;-91
2022/03/12 09:04:22;;;;;;;11.88;6.20;;;;;;;;;;6221475;23;20265;-93
2022/03/12 09:06:49;;;;;;;9.82;5.57;;;;;;;;;;6221815;23;20004;-91
2022/03/12 09:09:15;;;;;;;11.43;5.97;;;;;;;;;;6221521;23;20051;-91
2022/03/12 09:11:42;;;;;;;11.75;6.70;;;;;;;;;;6221814;23;20017;-92
2022/03/12 09:14:08;;;;;;;23.02;12.38;;;;;;;;;;6221413;23;20047;-91
2022/03/12 09:16:36;;;;;;;7.57;4.70;;;;;;;;;;6195660;23;20005;-91
2022/03/12 09:19:02;;;;;;;8.82;5.32;;;;;;;;;;6221182;23;20284;-93
2022/03/12 09:21:28;;;;;;;14.07;7.07;;;;;;;;;;6221990;23;19997;-92
2022/03/12 09:23:54;;;;;;;12.52;5.43;;;;;;;;;;6221617;23;20071;-93
2022/03/12 09:26:21;;;;;;;14.15;7.15;;;;;;;;;;6195060;23;20372;-92
2022/03/12 09:28:48;;;;;;;17.27;9.88;;;;;;;;;;6222120;23;20004;-91
2022/03/12 09:31:14;;;;;;;12.38;6.65;;;;;;;;;;6221813;23;20240;-91
2022/03/12 09:33:41;;;;;;;14.15;5.13;;;;;;;;;;6194628;23;20005;-92
2022/03/12 09:36:09;;;;;;;8.27;4.90;;;;;;;;;;6221949;23;20005;-92
2022/03/12 09:38:35;;;;;;;11.70;6.68;;;;;;;;;;6221070;23;20419;-91
2022/03/12 09:41:01;;;;;;;15.60;7.72;;;;;;;;;;6221442;23;20047;-91
2022/03/12 09:43:28;;;;;;;12.23;6.55;;;;;;;;;;6222777;23;20054;-91
2022/03/12 09:45:54;;;;;;;12.07;6.78;;;;;;;;;;6221716;23;20256;-91
2022/03/12 09:48:22;;;;;;;9.60;5.45;;;;;;;;;;6230678;23;20371;-95
2022/03/12 09:50:50;;;;;;;21.08;9.50;;;;;;;;;;6204818;23;20009;-95
2022/03/12 09:56:45;;;;;;;10.43;4.72;;;;;;;;;;6244184;23;20016;-96
2022/03/12 10:12:44;;;;;;;13.30;7.38;;;;;;;;;;6179003;22;20047;-97
2022/03/12 10:15:12;;;;;;;12.73;6.88;;;;;;;;;;6232701;23;20019;-95
2022/03/12 10:17:40;;;;;;;9.82;5.45;;;;;;;;;;6203308;23;20008;-96
2022/03/12 10:20:07;;;;;;;8.63;5.25;;;;;;;;;;6226774;23;20304;-95
2022/03/12 10:22:34;;;;;;;24.00;14.05;;;;;;;;;;6226872;23;20048;-94
2022/03/12 10:25:00;;;;;;;22.70;10.00;;;;;;;;;;6225480;23;20016;-95
2022/03/12 10:27:26;;;;;;;30.02;13.38;;;;;;;;;;6224922;23;20005;-94
2022/03/12 10:29:53;;;;;;;25.40;14.27;;;;;;;;;;6228168;23;20022;-94
2022/03/12 10:32:29;;;;;;;17.75;9.30;;;;;;;;;;6202067;23;20008;-96
2022/03/12 10:35:01;;;;;;;32.45;14.55;;;;;;;;;;6230382;23;20007;-95
2022/03/12 10:37:32;;;;;;;62.40;28.67;;;;;;;;;;6229935;23;20035;-96
2022/03/12 10:40:20;;;;;;;17.20;8.27;;;;;;;;;;6231986;23;20001;-91
2022/03/12 10:42:48;;;;;;;21.90;10.23;;;;;;;;;;6203124;23;20271;-95
2022/03/12 10:45:15;;;;;;;52.90;29.65;;;;;;;;;;6226663;23;20350;-95
2022/03/12 10:47:47;;;;;;;18.95;10.02;;;;;;;;;;6205776;23;20001;-96
2022/03/12 10:50:15;;;;;;;12.73;7.50;;;;;;;;;;6231283;23;20004;-94
2022/03/12 10:52:52;;;;;;;27.73;13.23;;;;;;;;;;6231084;23;20008;-95
2022/03/12 10:55:28;;;;;;;12.05;6.47;;;;;;;;;;6225593;23;20011;-96
2022/03/12 10:57:58;;;;;;;117.15;62.35;;;;;;;;;;6199134;23;20047;-96
2022/03/12 11:00:25;;;;;;;70.20;38.25;;;;;;;;;;6200698;23;20043;-95
2022/03/12 11:02:55;;;;;;;60.65;33.35;;;;;;;;;;6228677;23;20085;-95
2022/03/12 11:05:25;;;;;;;58.70;32.33;;;;;;;;;;6198841;23;20004;-95
2022/03/12 11:07:51;;;;;;;23.20;13.85;;;;;;;;;;6198206;23;20011;-95
2022/03/12 11:10:28;;;;;;;38.65;22.23;;;;;;;;;;6198152;23;20004;-95
2022/03/12 11:12:56;;;;;;;11.27;5.63;;;;;;;;;;6225119;22;20008;-94
2022/03/12 11:15:24;;;;;;;14.40;5.40;;;;;;;;;;6224815;23;20371;-96
2022/03/12 11:17:51;;;;;;;41.42;22.23;;;;;;;;;;6224838;23;20054;-94
2022/03/12 11:20:24;;;;;;;27.00;12.27;;;;;;;;;;6224081;23;19997;-95
2022/03/12 11:22:50;;;;;;;;;;;;;;;;;;6224884;23;20022;-95
2022/03/12 11:25:20;;;;;;;11.18;5.75;;;;;;;;;;6224503;23;19907;-95
2022/03/12 11:27:50;;;;;;;9.95;5.55;;;;;;;;;;6224454;23;20005;-94
2022/03/12 11:30:20;;;;;;;21.20;5.63;;;;;;;;;;6197727;23;20422;-94
2022/03/12 11:32:47;;;;;;;17.10;7.72;;;;;;;;;;6224013;23;20005;-96
2022/03/12 11:35:17;;;;;;;14.20;6.53;;;;;;;;;;6224015;23;20265;-93
2022/03/12 11:37:43;;;;;;;9.95;5.63;;;;;;;;;;6197722;23;20009;-95
2022/03/12 11:40:14;;;;;;;8.02;4.65;;;;;;;;;;6197690;23;20012;-95
2022/03/12 11:42:41;;;;;;;9.00;5.10;;;;;;;;;;6196006;23;20012;-95
2022/03/12 11:45:15;;;;;;;11.38;5.28;;;;;;;;;;6223388;23;20080;-95
2022/03/12 11:47:43;;;;;;;20.05;7.40;;;;;;;;;;6223435;23;20005;-95
2022/03/12 11:50:16;;;;;;;14.32;7.40;;;;;;;;;;6225841;23;20071;-96
2022/03/12 11:52:47;;;;;;;15.38;6.65;;;;;;;;;;6197844;23;20008;-94
2022/03/12 11:55:17;;;;;;;18.40;6.97;;;;;;;;;;6223221;23;20001;-94
2022/03/12 11:57:46;;;;;;;13.13;6.43;;;;;;;;;;6223185;23;20000;-95
2022/03/12 12:00:18;;;;;;;11.48;6.18;;;;;;;;;;6195653;23;20056;-95
2022/03/12 12:02:44;;;;;;;10.98;6.55;;;;;;;;;;6196132;23;20008;-95
2022/03/12 12:05:12;;;;;;;19.55;6.82;;;;;;;;;;6195806;23;20368;-94
2022/03/12 12:07:39;;;;;;;11.35;6.30;;;;;;;;;;6223184;23;20005;-96
2022/03/12 12:10:05;;;;;;;12.50;6.60;;;;;;;;;;6223056;23;20001;-94
2022/03/12 12:12:35;;;;;;;8.98;5.68;;;;;;;;;;6222825;22;20013;-95
2022/03/12 12:15:02;;;;;;;9.60;5.57;;;;;;;;;;6223600;23;20020;-95
2022/03/12 12:17:30;;;;;;;33.13;10.63;;;;;;;;;;6196967;23;20015;-94
2022/03/12 12:19:56;;;;;;;28.00;8.73;;;;;;;;;;6200348;23;20020;-96
2022/03/12 12:22:23;;;;;;;9.13;5.70;;;;;;;;;;6214369;23;20008;-95
2022/03/12 12:24:52;;;;;;;17.92;8.90;;;;;;;;;;6226022;23;20031;-96
2022/03/12 12:27:23;;;;;;;12.43;7.20;;;;;;;;;;6207456;23;20000;-95
2022/03/12 12:29:54;;;;;;;14.77;8.32;;;;;;;;;;6205646;23;20084;-95
2022/03/12 12:32:23;;;;;;;19.50;9.75;;;;;;;;;;6226294;23;20000;-96
2022/03/12 12:34:59;;;;;;;14.93;7.60;;;;;;;;;;6199772;23;20060;-94
2022/03/12 12:37:44;;;;;;;12.30;7.78;;;;;;;;;;6225591;23;20004;-96
2022/03/12 12:40:21;;;;;;;15.75;9.15;;;;;;;;;;6223663;23;19997;-96
2022/03/12 12:42:48;;;;;;;10.80;7.15;;;;;;;;;;6224524;22;20001;-94
2022/03/12 12:45:16;;;;;;;10.13;6.57;;;;;;;;;;6222694;23;20009;-90
2022/03/12 12:47:43;;;;;;;10.85;6.78;;;;;;;;;;6221898;23;20005;-89
2022/03/12 12:50:22;;;;;;;15.20;8.00;;;;;;;;;;6221755;23;20005;-89
2022/03/12 12:53:07;;;;;;;11.55;7.53;;;;;;;;;;6195035;23;20051;-89
2022/03/12 12:55:34;;;;;;;11.35;7.55;;;;;;;;;;6221816;23;20028;-88
2022/03/12 12:58:00;;;;;;;17.80;9.75;;;;;;;;;;6221584;23;20047;-89
2022/03/12 13:00:32;;;;;;;11.25;7.25;;;;;;;;;;6221774;23;20024;-89
2022/03/12 13:02:59;;;;;;;10.48;6.28;;;;;;;;;;6222188;23;20009;-89
2022/03/12 13:05:44;;;;;;;14.98;7.93;;;;;;;;;;6222140;23;20000;-90
2022/03/12 13:08:12;;;;;;;18.17;7.80;;;;;;;;;;6221242;23;20024;-89
2022/03/12 13:10:39;;;;;;;13.02;7.40;;;;;;;;;;6221437;23;20007;-89
2022/03/12 13:13:20;;;;;;;45.45;10.43;;;;;;;;;;6221831;23;20021;-88
2022/03/12 13:15:48;;;;;;;20.50;10.32;;;;;;;;;;6221558;23;20005;-88
2022/03/12 13:18:20;;;;;;;55.25;24.52;;;;;;;;;;6195338;23;20051;-88
2022/03/12 13:20:46;;;;;;;20.60;10.57;;;;;;;;;;6221380;23;20359;-89
2022/03/12 13:23:14;;;;;;;11.57;7.40;;;;;;;;;;6195204;23;20055;-88
2022/03/12 13:25:57;;;;;;;17.60;9.07;;;;;;;;;;6222433;23;20000;-89
2022/03/12 13:28:41;;;;;;;18.92;9.70;;;;;;;;;;6222028;23;20107;-89
2022/03/12 13:31:16;;;;;;;21.75;10.77;;;;;;;;;;6221962;23;20233;-89
2022/03/12 13:33:43;;;;;;;19.67;10.85;;;;;;;;;;6221996;23;20001;-89
2022/03/12 13:36:19;;;;;;;14.30;8.57;;;;;;;;;;6195033;23;20364;-89
2022/03/12 13:38:45;;;;;;;19.88;11.20;;;;;;;;;;6221269;23;20008;-90
2022/03/12 13:41:15;;;;;;;25.10;10.07;;;;;;;;;;6221133;23;19997;-90
2022/03/12 13:43:42;;;;;;;19.25;10.15;;;;;;;;;;6195267;23;20430;-89
2022/03/12 13:46:08;;;;;;;20.00;10.20;;;;;;;;;;6221875;23;20004;-89
2022/03/12 13:48:34;;;;;;;30.58;10.85;;;;;;;;;;6194818;23;20183;-88
2022/03/12 13:51:00;;;;;;;39.70;13.20;;;;;;;;;;6195493;23;20436;-89
2022/03/12 13:53:29;;;;;;;48.53;12.68;;;;;;;;;;6221994;23;20356;-94
2022/03/12 13:56:05;;;;;;;25.15;12.02;;;;;;;;;;6221686;23;20024;-90
2022/03/12 13:58:31;;;;;;;31.15;15.30;;;;;;;;;;6221460;23;20000;-89
2022/03/12 14:00:59;;;;;;;21.40;10.43;;;;;;;;;;6221718;23;20056;-90
2022/03/12 14:03:29;;;;;;;21.98;11.07;;;;;;;;;;6221837;23;20000;-91
2022/03/12 14:05:55;;;;;;;17.80;11.60;;;;;;;;;;6221827;23;20005;-91
2022/03/12 14:08:24;;;;;;;19.85;10.68;;;;;;;;;;6195343;23;20005;-90
2022/03/12 14:10:52;;;;;;;24.25;12.50;;;;;;;;;;6221741;23;20056;-91
2022/03/12 14:13:20;;;;;;;17.70;9.93;;;;;;;;;;6221744;23;20017;-92
2022/03/12 14:15:47;;;;;;;14.75;9.18;;;;;;;;;;6195168;23;20276;-91
2022/03/12 14:18:20;;;;;;;21.35;11.52;;;;;;;;;;6221624;23;20045;-90
2022/03/12 14:20:50;;;;;;;18.10;9.73;;;;;;;;;;6194957;23;20005;-89
2022/03/12 14:23:20;;;;;;;13.23;8.30;;;;;;;;;;6221749;23;20008;-90
2022/03/12 14:25:48;;;;;;;13.75;8.68;;;;;;;;;;6221463;23;19997;-90
2022/03/12 14:28:14;;;;;;;16.05;9.07;;;;;;;;;;6196484;23;20237;-90
2022/03/12 14:30:41;;;;;;;16.98;10.80;;;;;;;;;;6221526;23;20075;-90
2022/03/12 14:33:07;;;;;;;20.75;11.25;;;;;;;;;;6221389;23;20005;-90
2022/03/12 14:35:34;;;;;;;19.45;10.88;;;;;;;;;;6221996;23;20031;-90
2022/03/12 14:38:02;;;;;;;15.65;8.75;;;;;;;;;;6222004;23;20123;-89
2022/03/12 14:40:29;;;;;;;22.48;12.15;;;;;;;;;;6221137;23;20001;-90
2022/03/12 14:42:55;;;;;;;15.90;9.68;;;;;;;;;;6221169;22;20084;-89
2022/03/12 14:45:22;;;;;;;19.52;10.82;;;;;;;;;;6221264;23;19997;-90
2022/03/12 14:47:48;;;;;;;21.63;11.73;;;;;;;;;;6194846;23;20012;-90
2022/03/12 14:50:16;;;;;;;22.33;9.55;;;;;;;;;;6220933;23;20047;-90
2022/03/12 14:52:48;;;;;;;16.63;9.73;;;;;;;;;;6194047;23;20368;-90
2022/03/12 14:55:15;;;;;;;14.80;8.38;;;;;;;;;;6221142;23;20088;-90
2022/03/12 14:57:41;;;;;;;16.30;8.35;;;;;;;;;;6194070;23;20007;-91
2022/03/12 15:00:09;;;;;;;11.98;7.63;;;;;;;;;;6224567;23;20364;-89
2022/03/12 15:02:40;;;;;;;15.02;8.65;;;;;;;;;;6194441;23;20005;-89
2022/03/12 15:05:08;;;;;;;22.25;11.23;;;;;;;;;;6221122;23;20004;-89
2022/03/12 15:07:48;;;;;;;16.45;10.57;;;;;;;;;;6220886;23;20375;-91
2022/03/12 15:10:16;;;;;;;25.73;14.63;;;;;;;;;;6221214;23;20009;-89
2022/03/12 15:12:44;;;;;;;17.48;10.48;;;;;;;;;;6220652;22;20019;-90
2022/03/12 15:15:23;;;;;;;15.52;9.77;;;;;;;;;;6194619;23;20013;-89
2022/03/12 15:17:53;;;;;;;171.75;69.00;;;;;;;;;;6195628;23;20016;-90
2022/03/12 15:20:23;;;;;;;153.00;63.22;;;;;;;;;;6222939;23;20023;-90
2022/03/12 15:22:51;;;;;;;99.18;40.58;;;;;;;;;;6222802;23;19997;-90
2022/03/12 15:25:18;;;;;;;32.25;16.33;;;;;;;;;;6196094;23;20005;-90
2022/03/12 15:27:52;;;;;;;31.55;16.15;;;;;;;;;;6196446;23;20005;-90
2022/03/12 15:30:19;;;;;;;30.63;15.10;;;;;;;;;;6223014;23;20009;-89
2022/03/12 15:32:49;;;;;;;23.15;13.52;;;;;;;;;;6222242;23;20009;-90
2022/03/12 15:35:15;;;;;;;27.73;14.82;;;;;;;;;;6222556;23;20003;-91
2022/03/12 15:37:42;;;;;;;24.08;13.25;;;;;;;;;;6222613;23;20008;-91
2022/03/12 15:40:10;;;;;;;27.35;14.93;;;;;;;;;;6196223;23;20004;-89
2022/03/12 15:42:39;;;;;;;24.23;14.52;;;;;;;;;;6196131;23;20013;-90
2022/03/12 15:45:09;;;;;;;20.85;10.68;;;;;;;;;;6222920;23;20104;-90
2022/03/12 15:47:35;;;;;;;19.88;11.05;;;;;;;;;;6196085;23;20013;-91
2022/03/12 15:50:03;;;;;;;26.05;14.60;;;;;;;;;;6222495;23;20024;-91
2022/03/12 15:52:29;;;;;;;30.33;15.10;;;;;;;;;;6195845;23;20006;-91
2022/03/12 15:54:55;;;;;;;25.20;12.82;;;;;;;;;;6222049;23;20009;-90
2022/03/12 15:57:21;;;;;;;19.48;11.18;;;;;;;;;;6222346;23;20000;-91
2022/03/12 15:59:49;;;;;;;21.15;11.68;;;;;;;;;;6222534;23;19993;-90
2022/03/12 16:02:15;;;;;;;22.20;13.35;;;;;;;;;;6195535;23;20011;-91
2022/03/12 16:04:41;;;;;;;25.27;13.20;;;;;;;;;;6195462;23;20005;-91
2022/03/12 16:07:08;;;;;;;21.42;11.32;;;;;;;;;;6222356;23;20008;-91
2022/03/12 16:09:34;;;;;;;18.48;10.60;;;;;;;;;;6222130;23;20008;-91
2022/03/12 16:12:01;;;;;;;23.58;12.88;;;;;;;;;;6196038;23;20041;-90
2022/03/12 16:14:31;;;;;;;25.63;14.35;;;;;;;;;;6221823;23;20016;-91
2022/03/12 16:16:57;;;;;;;27.17;15.95;;;;;;;;;;6198079;23;20311;-91
2022/03/12 16:19:24;;;;;;;27.67;17.08;;;;;;;;;;6223469;23;20001;-91
2022/03/12 16:21:53;;;;;;;35.95;19.98;;;;;;;;;;6195847;23;20000;-91
2022/03/12 16:24:20;;;;;;;40.13;20.48;;;;;;;;;;6222527;23;20114;-90
2022/03/12 16:26:46;;;;;;;42.55;22.20;;;;;;;;;;6195029;23;20059;-92
2022/03/12 16:29:14;;;;;;;34.40;18.90;;;;;;;;;;6222341;23;20066;-90
2022/03/12 16:31:41;;;;;;;35.80;18.52;;;;;;;;;;6195501;23;20015;-91
2022/03/12 16:34:08;;;;;;;45.35;20.73;;;;;;;;;;6222515;23;20091;-91
2022/03/12 16:36:41;;;;;;;92.18;38.22;;;;;;;;;;6221531;23;20064;-91
2022/03/12 16:39:10;;;;;;;84.38;37.20;;;;;;;;;;6221620;23;20012;-91
2022/03/12 16:41:39;;;;;;;90.03;35.92;;;;;;;;;;6222214;23;20263;-91
2022/03/12 16:44:05;;;;;;;77.15;30.95;;;;;;;;;;6210327;23;20008;-91
2022/03/12 16:46:34;;;;;;;97.15;36.10;;;;;;;;;;6221713;23;20004;-91
2022/03/12 16:49:01;;;;;;;104.53;38.40;;;;;;;;;;6221803;23;20009;-92
2022/03/12 16:51:29;;;;;;;111.47;45.25;;;;;;;;;;6194706;23;20031;-91
2022/03/12 16:53:55;;;;;;;138.80;59.20;;;;;;;;;;6221709;23;20015;-91
2022/03/12 16:56:21;;;;;;;182.15;75.25;;;;;;;;;;6221643;23;20356;-91
2022/03/12 16:58:47;;;;;;;341.73;118.20;;;;;;;;;;6195537;23;20020;-93
2022/03/12 17:01:13;;;;;;;353.70;122.15;;;;;;;;;;6195669;23;20005;-90
2022/03/12 17:03:39;;;;;;;343.00;116.82;;;;;;;;;;6222128;23;20079;-91
2022/03/12 17:06:05;;;;;;;309.27;114.05;;;;;;;;;;6195504;23;20012;-92
2022/03/12 17:08:31;;;;;;;296.05;109.28;;;;;;;;;;6221923;23;20046;-91
2022/03/12 17:10:59;;;;;;;267.88;101.30;;;;;;;;;;6221520;23;19992;-90
2022/03/12 17:13:28;;;;;;;291.13;102.00;;;;;;;;;;6221678;23;20017;-89
2022/03/12 17:15:55;;;;;;;294.20;100.97;;;;;;;;;;6194810;23;20320;-88
2022/03/12 17:18:21;;;;;;;285.85;100.53;;;;;;;;;;6221829;23;20009;-88
2022/03/12 17:20:51;;;;;;;277.45;101.53;;;;;;;;;;6221619;23;20004;-89
2022/03/12 17:23:23;;;;;;;261.85;104.10;;;;;;;;;;6195402;23;20027;-88
2022/03/12 17:25:49;;;;;;;237.13;96.30;;;;;;;;;;6222007;23;20011;-88
2022/03/12 17:28:16;;;;;;;240.88;101.05;;;;;;;;;;6221859;23;20276;-88
2022/03/12 17:30:42;;;;;;;266.08;113.75;;;;;;;;;;6221250;23;20012;-88
2022/03/12 17:33:08;;;;;;;316.60;132.77;;;;;;;;;;6220907;23;20005;-88
2022/03/12 17:35:34;;;;;;;402.13;150.57;;;;;;;;;;6222086;23;20004;-88
2022/03/12 17:38:01;;;;;;;397.13;160.25;;;;;;;;;;6194876;23;20005;-88
2022/03/12 17:40:27;;;;;;;438.73;185.70;;;;;;;;;;6221015;23;20001;-88
2022/03/12 17:42:55;;;;;;;437.88;200.50;;;;;;;;;;6221394;22;20004;-88
2022/03/12 17:45:22;;;;;;;454.00;209.38;;;;;;;;;;6194516;23;20263;-88
2022/03/12 17:47:48;;;;;;;448.80;215.15;;;;;;;;;;6221683;23;20303;-88
2022/03/12 17:50:18;;;;;;;444.25;215.43;;;;;;;;;;6194546;23;20030;-88
2022/03/12 17:52:44;;;;;;;444.40;220.85;;;;;;;;;;6221014;23;20001;-88
2022/03/12 17:55:20;;;;;;;437.05;213.55;;;;;;;;;;6198092;23;20004;-96
2022/03/12 17:57:48;;;;;;;422.05;211.25;;;;;;;;;;6222213;23;20019;-90
2022/03/12 18:00:18;;;;;;;403.58;203.23;;;;;;;;;;6195172;23;20000;-90
2022/03/12 18:02:45;;;;;;;407.73;211.40;;;;;;;;;;6221603;23;20469;-92
2022/03/12 18:05:11;;;;;;;434.17;230.23;;;;;;;;;;6221596;23;20041;-91
2022/03/12 18:07:38;;;;;;;427.80;226.95;;;;;;;;;;6194652;23;20004;-91
2022/03/12 18:10:07;;;;;;;409.05;205.27;;;;;;;;;;6194757;23;20015;-92
2022/03/12 18:12:33;;;;;;;409.50;212.57;;;;;;;;;;6194398;23;20345;-92
2022/03/12 18:15:02;;;;;;;418.38;210.73;;;;;;;;;;6220825;23;20383;-91
2022/03/12 18:17:31;;;;;;;396.95;204.32;;;;;;;;;;6194305;23;20013;-92
2022/03/12 18:19:57;;;;;;;380.98;196.07;;;;;;;;;;6194202;23;20071;-92
2022/03/12 18:22:24;;;;;;;385.58;199.05;;;;;;;;;;6220746;23;20043;-91
2022/03/12 18:24:52;;;;;;;373.90;188.63;;;;;;;;;;6221039;23;20004;-91
2022/03/12 18:27:20;;;;;;;364.50;181.43;;;;;;;;;;6194846;23;20008;-92
2022/03/12 18:29:46;;;;;;;352.38;176.65;;;;;;;;;;6220793;23;20000;-90
2022/03/12 18:32:16;;;;;;;366.73;179.35;;;;;;;;;;6220838;23;20075;-91
2022/03/12 18:34:47;;;;;;;349.10;173.20;;;;;;;;;;6220774;23;20008;-91
2022/03/12 18:37:16;;;;;;;338.25;172.25;;;;;;;;;;6220629;23;20011;-92
2022/03/12 18:39:46;;;;;;;340.50;170.98;;;;;;;;;;6221227;23;19996;-91
2022/03/12 18:42:13;;;;;;;329.30;166.25;;;;;;;;;;6194335;23;20383;-91
2022/03/12 18:44:40;;;;;;;321.05;166.32;;;;;;;;;;6220963;23;20372;-92
2022/03/12 18:47:07;;;;;;;320.88;159.95;;;;;;;;;;6194018;23;20054;-91
2022/03/12 18:49:33;;;;;;;322.67;162.98;;;;;;;;;;6195537;23;20015;-93
2022/03/12 18:51:59;;;;;;;309.77;155.73;;;;;;;;;;6196529;23;20373;-92
2022/03/12 18:54:26;;;;;;;300.67;152.32;;;;;;;;;;6225236;23;20013;-91
2022/03/12 18:56:52;;;;;;;284.52;142.20;;;;;;;;;;6223839;23;20024;-91
2022/03/12 18:59:18;;;;;;;276.65;140.73;;;;;;;;;;6222535;23;20287;-91
2022/03/12 19:01:45;;;;;;;282.65;140.80;;;;;;;;;;6222713;23;20005;-90
2022/03/12 19:04:11;;;;;;;284.35;140.27;;;;;;;;;;6196650;23;20079;-91
2022/03/12 19:06:39;;;;;;;324.15;166.93;;;;;;;;;;6222746;23;20384;-91
2022/03/12 19:09:06;;;;;;;321.70;153.50;;;;;;;;;;6196586;23;20016;-92
2022/03/12 19:11:33;;;;;;;342.15;154.32;;;;;;;;;;6196156;23;20009;-91
2022/03/12 19:14:05;;;;;;;458.80;204.02;;;;;;;;;;6222716;23;20032;-92
2022/03/12 19:16:33;;;;;;;467.70;202.93;;;;;;;;;;6196380;23;20016;-91
2022/03/12 19:19:01;;;;;;;535.70;231.32;;;;;;;;;;6196541;23;20087;-91
2022/03/12 19:21:27;;;;;;;509.23;224.43;;;;;;;;;;6222866;23;20084;-92
2022/03/12 19:23:53;;;;;;;494.80;218.82;;;;;;;;;;6223024;23;20003;-93
2022/03/12 19:26:19;;;;;;;506.17;224.13;;;;;;;;;;6195965;23;20001;-92
2022/03/12 19:28:47;;;;;;;480.13;220.05;;;;;;;;;;6222474;23;20352;-92
2022/03/12 19:31:22;;;;;;;486.25;220.00;;;;;;;;;;6195701;23;20011;-92
2022/03/12 19:33:50;;;;;;;468.13;216.55;;;;;;;;;;6195699;23;20363;-93
2022/03/12 19:36:17;;;;;;;465.58;214.77;;;;;;;;;;6222777;23;20000;-92
2022/03/12 19:38:43;;;;;;;505.92;242.05;;;;;;;;;;6222794;23;20001;-92
2022/03/12 19:41:09;;;;;;;470.60;229.25;;;;;;;;;;6222918;23;19997;-92
2022/03/12 19:43:36;;;;;;;429.33;212.10;;;;;;;;;;6222728;23;20347;-91
2022/03/12 19:46:02;;;;;;;400.70;193.93;;;;;;;;;;6222366;23;20051;-91
2022/03/12 19:48:29;;;;;;;376.02;178.27;;;;;;;;;;6222130;23;20023;-91
2022/03/12 19:50:55;;;;;;;408.38;190.40;;;;;;;;;;6222636;23;20008;-91
2022/03/12 19:53:23;;;;;;;449.05;208.95;;;;;;;;;;6222270;23;20011;-92
2022/03/12 19:55:49;;;;;;;427.05;204.07;;;;;;;;;;6222260;23;20012;-92
2022/03/12 19:58:17;;;;;;;430.23;204.63;;;;;;;;;;6195968;23;20020;-92
2022/03/12 20:00:44;;;;;;;414.10;198.10;;;;;;;;;;6222632;23;20021;-92
2022/03/12 20:03:10;;;;;;;416.27;197.38;;;;;;;;;;6222376;23;19997;-93
2022/03/12 20:05:36;;;;;;;411.35;197.52;;;;;;;;;;6222525;23;20060;-92
2022/03/12 20:08:03;;;;;;;396.48;193.65;;;;;;;;;;6222120;23;20047;-93
2022/03/12 20:10:31;;;;;;;404.27;196.77;;;;;;;;;;6196664;23;20012;-92
2022/03/12 20:12:57;;;;;;;413.20;214.75;;;;;;;;;;6196906;23;20013;-92
2022/03/12 20:15:26;;;;;;;435.05;223.13;;;;;;;;;;6226140;23;20355;-93
2022/03/12 20:17:53;;;;;;;449.63;234.23;;;;;;;;;;6222348;23;20090;-92
2022/03/12 20:20:19;;;;;;;463.35;244.07;;;;;;;;;;6222459;23;20241;-92
2022/03/12 20:22:48;;;;;;;470.92;243.38;;;;;;;;;;6222538;23;20371;-93
2022/03/12 20:25:14;;;;;;;471.50;241.68;;;;;;;;;;6196229;23;20005;-92
2022/03/12 20:27:42;;;;;;;475.52;245.40;;;;;;;;;;6222392;23;20000;-91
2022/03/12 20:30:08;;;;;;;467.80;240.43;;;;;;;;;;6195504;23;20007;-92
2022/03/12 20:32:37;;;;;;;478.40;239.70;;;;;;;;;;6222226;23;20011;-92
2022/03/12 20:35:04;;;;;;;486.75;250.43;;;;;;;;;;6221571;23;20013;-91
2022/03/12 20:37:30;;;;;;;482.73;245.43;;;;;;;;;;6194759;23;20015;-93
2022/03/12 20:39:57;;;;;;;483.10;246.63;;;;;;;;;;6221886;23;20000;-91
2022/03/12 20:42:23;;;;;;;484.02;245.55;;;;;;;;;;6222373;23;20004;-92
2022/03/12 20:44:49;;;;;;;468.25;236.10;;;;;;;;;;6195895;23;20074;-91
2022/03/12 20:47:16;;;;;;;451.30;224.73;;;;;;;;;;6222244;23;20816;-92
2022/03/12 20:49:43;;;;;;;449.75;218.02;;;;;;;;;;6221963;23;20021;-92
2022/03/12 20:52:09;;;;;;;430.70;210.95;;;;;;;;;;6221777;23;20004;-92
2022/03/12 20:54:36;;;;;;;415.30;204.15;;;;;;;;;;6221770;23;20375;-93
2022/03/12 20:57:03;;;;;;;405.38;189.55;;;;;;;;;;6222058;23;20005;-92
2022/03/12 20:59:29;;;;;;;380.55;181.00;;;;;;;;;;6221514;23;20256;-92
2022/03/12 21:01:55;;;;;;;360.23;170.85;;;;;;;;;;6195660;23;20004;-90
2022/03/12 21:04:22;;;;;;;339.70;162.98;;;;;;;;;;6195179;23;20005;-92
2022/03/12 21:06:48;;;;;;;331.90;154.05;;;;;;;;;;6221511;23;20007;-92
2022/03/12 21:09:15;;;;;;;327.17;156.20;;;;;;;;;;6195538;23;20354;-91
2022/03/12 21:11:43;;;;;;;307.83;149.77;;;;;;;;;;6221871;23;20004;-92
2022/03/12 21:14:10;;;;;;;314.40;145.57;;;;;;;;;;6194630;23;20384;-92
2022/03/12 21:16:36;;;;;;;298.25;143.45;;;;;;;;;;6221811;23;20088;-91
2022/03/12 21:19:02;;;;;;;309.80;147.52;;;;;;;;;;6195419;23;20004;-92
2022/03/12 21:21:28;;;;;;;319.13;152.35;;;;;;;;;;6221766;23;20016;-91
2022/03/12 21:23:56;;;;;;;369.08;163.95;;;;;;;;;;6221721;23;20012;-93
2022/03/12 21:26:25;;;;;;;379.60;171.60;;;;;;;;;;6221883;23;20043;-92
2022/03/12 21:28:52;;;;;;;381.48;176.85;;;;;;;;;;6221570;23;20001;-93
2022/03/12 21:31:19;;;;;;;378.13;179.82;;;;;;;;;;6221514;23;20008;-92
2022/03/12 21:33:45;;;;;;;385.17;185.70;;;;;;;;;;6224018;23;20020;-92
2022/03/12 21:36:14;;;;;;;378.90;185.70;;;;;;;;;;6221643;23;20001;-93
2022/03/12 21:41:44;;;;;;;;;;;;;;;;;;6221702;23;20007;-94
2022/03/12 21:44:12;;;;;;;519.45;231.32;;;;;;;;;;6195374;23;19904;-94
2022/03/12 21:46:38;;;;;;;625.40;247.07;;;;;;;;;;6221774;23;20004;-94
2022/03/12 21:49:06;;;;;;;602.58;234.38;;;;;;;;;;6221592;23;20008;-94
2022/03/12 21:51:32;;;;;;;510.80;201.43;;;;;;;;;;6194715;23;20011;-95
2022/03/12 21:54:01;;;;;;;593.97;224.20;;;;;;;;;;6221436;23;20263;-93
2022/03/12 21:56:27;;;;;;;574.83;221.60;;;;;;;;;;6221024;23;20004;-93
2022/03/12 21:58:54;;;;;;;555.00;208.70;;;;;;;;;;6221470;23;20071;-94
2022/03/12 22:01:20;;;;;;;492.50;184.57;;;;;;;;;;6194959;23;20047;-94
2022/03/12 22:03:48;;;;;;;338.13;137.05;;;;;;;;;;6195072;23;20000;-94
2022/03/12 22:06:15;;;;;;;283.45;124.13;;;;;;;;;;6220867;23;19997;-94
2022/03/12 22:11:44;;;;;;;269.00;122.95;;;;;;;;;;6220962;23;20008;-94
2022/03/12 22:14:10;;;;;;;285.27;127.72;;;;;;;;;;6221057;23;20070;-93
2022/03/12 22:16:36;;;;;;;292.45;129.93;;;;;;;;;;6194700;23;20040;-94
2022/03/12 22:19:05;;;;;;;323.85;136.93;;;;;;;;;;6221046;23;20000;-94
2022/03/12 22:21:32;;;;;;;306.13;136.77;;;;;;;;;;6221456;23;20005;-93